sensor_id;sensor_type;location;lat;lon;timestamp;temperature;humidity
10885;DHT22;5495;53.252;10.390;2023-01-19T00:00:14;1.30;99.90
10885;DHT22;5495;53.252;10.390;2023-01-19T00:02:46;1.30;99.90
10885;DHT22;5495;53.252;10.390;2023-01-19T00:05:15;1.30;99.90
10885;DHT22;5495;53.252;10.390;2023-01-19T00:07:43;0.50;99.90
10885;DHT22;5495;53.252;10.390;2023-01-19T00:10:12;1.30;99.90
10885;DHT22;5495;53.252;10.390;2023-01-19T00:12:49;1.40;99.90
10885;DHT22;5495;53.252;10.390;2023-01-19T00:15:18;1.40;99.90
10885;DHT22;5495;53.252;10.390;2023-01-19T00:17:55;1.30;99.90
10885;DHT22;5495;53.252;10.390;2023-01-19T00:20:23;0.90;99.90
10885;DHT22;5495;53.252;10.390;2023-01-19T00:22:51;1.70;99.90
10885;DHT22;5495;53.252;10.390;2023-01-19T00:25:20;1.50;99.90
10885;DHT22;5495;53.252;10.390;2023-01-19T00:27:56;1.50;99.90
10885;DHT22;5495;53.252;10.390;2023-01-19T00:30:23;0.60;99.90
10885;DHT22;5495;53.252;10.390;2023-01-19T00:32:51;1.50;99.90
10885;DHT22;5495;53.252;10.390;2023-01-19T00:35:18;1.50;99.90
10885;DHT22;5495;53.252;10.390;2023-01-19T00:37:52;1.50;99.90
10885;DHT22;5495;53.252;10.390;2023-01-19T00:40:21;1.60;99.90
10885;DHT22;5495;53.252;10.390;2023-01-19T00:42:56;1.60;99.90
10885;DHT22;5495;53.252;10.390;2023-01-19T00:45:30;1.60;99.90
10885;DHT22;5495;53.252;10.390;2023-01-19T00:47:57;1.30;99.90
10885;DHT22;5495;53.252;10.390;2023-01-19T00:50:26;1.50;99.90
10885;DHT22;5495;53.252;10.390;2023-01-19T00:52:55;1.70;99.90
10885;DHT22;5495;53.252;10.390;2023-01-19T00:55:22;1.60;99.90
10885;DHT22;5495;53.252;10.390;2023-01-19T00:57:50;1.50;99.90
10885;DHT22;5495;53.252;10.390;2023-01-19T01:00:20;1.60;99.90
10885;DHT22;5495;53.252;10.390;2023-01-19T01:02:50;1.50;99.90
10885;DHT22;5495;53.252;10.390;2023-01-19T01:05:18;1.50;99.90
10885;DHT22;5495;53.252;10.390;2023-01-19T01:07:48;1.60;99.90
10885;DHT22;5495;53.252;10.390;2023-01-19T01:10:18;1.90;99.90
10885;DHT22;5495;53.252;10.390;2023-01-19T01:12:46;1.80;99.90
10885;DHT22;5495;53.252;10.390;2023-01-19T01:15:15;1.60;99.90
10885;DHT22;5495;53.252;10.390;2023-01-19T01:17:45;1.60;99.90
10885;DHT22;5495;53.252;10.390;2023-01-19T01:20:23;1.60;99.90
10885;DHT22;5495;53.252;10.390;2023-01-19T01:22:55;1.90;99.90
10885;DHT22;5495;53.252;10.390;2023-01-19T01:25:24;1.60;99.90
10885;DHT22;5495;53.252;10.390;2023-01-19T01:27:55;1.70;99.90
10885;DHT22;5495;53.252;10.390;2023-01-19T01:30:23;2.00;99.90
10885;DHT22;5495;53.252;10.390;2023-01-19T01:33:03;1.60;99.90
10885;DHT22;5495;53.252;10.390;2023-01-19T01:35:31;1.60;99.90
10885;DHT22;5495;53.252;10.390;2023-01-19T01:37:59;1.60;99.90
10885;DHT22;5495;53.252;10.390;2023-01-19T01:40:27;1.80;99.90
10885;DHT22;5495;53.252;10.390;2023-01-19T01:43:00;1.60;99.90
10885;DHT22;5495;53.252;10.390;2023-01-19T01:45:30;2.50;99.90
10885;DHT22;5495;53.252;10.390;2023-01-19T01:48:03;1.70;99.90
10885;DHT22;5495;53.252;10.390;2023-01-19T01:50:36;1.70;99.90
10885;DHT22;5495;53.252;10.390;2023-01-19T01:53:14;1.70;99.90
10885;DHT22;5495;53.252;10.390;2023-01-19T01:55:45;1.70;99.90
10885;DHT22;5495;53.252;10.390;2023-01-19T01:58:18;1.80;99.90
10885;DHT22;5495;53.252;10.390;2023-01-19T02:00:45;1.80;99.90
10885;DHT22;5495;53.252;10.390;2023-01-19T02:03:31;1.80;99.90
10885;DHT22;5495;53.252;10.390;2023-01-19T02:06:00;1.80;99.90
10885;DHT22;5495;53.252;10.390;2023-01-19T02:08:33;1.80;99.90
10885;DHT22;5495;53.252;10.390;2023-01-19T02:11:19;1.80;99.90
10885;DHT22;5495;53.252;10.390;2023-01-19T02:14:04;1.80;99.90
10885;DHT22;5495;53.252;10.390;2023-01-19T02:16:32;1.80;99.90
10885;DHT22;5495;53.252;10.390;2023-01-19T02:19:02;1.80;99.90
10885;DHT22;5495;53.252;10.390;2023-01-19T02:21:37;1.90;99.90
10885;DHT22;5495;53.252;10.390;2023-01-19T02:24:12;2.20;99.90
10885;DHT22;5495;53.252;10.390;2023-01-19T02:26:40;1.80;99.90
10885;DHT22;5495;53.252;10.390;2023-01-19T02:29:10;1.80;99.90
10885;DHT22;5495;53.252;10.390;2023-01-19T02:31:38;1.90;99.90
10885;DHT22;5495;53.252;10.390;2023-01-19T02:34:08;2.10;99.90
10885;DHT22;5495;53.252;10.390;2023-01-19T02:36:47;1.70;99.90
10885;DHT22;5495;53.252;10.390;2023-01-19T02:39:19;1.80;99.90
10885;DHT22;5495;53.252;10.390;2023-01-19T02:41:51;1.70;99.90
10885;DHT22;5495;53.252;10.390;2023-01-19T02:44:20;1.70;99.90
10885;DHT22;5495;53.252;10.390;2023-01-19T02:46:48;1.70;99.90
10885;DHT22;5495;53.252;10.390;2023-01-19T02:49:17;1.80;99.90
10885;DHT22;5495;53.252;10.390;2023-01-19T02:51:47;1.70;99.90
10885;DHT22;5495;53.252;10.390;2023-01-19T02:54:25;1.80;99.90
10885;DHT22;5495;53.252;10.390;2023-01-19T03:00:06;1.70;99.90
10885;DHT22;5495;53.252;10.390;2023-01-19T03:02:46;1.90;99.90
10885;DHT22;5495;53.252;10.390;2023-01-19T03:05:26;1.80;99.90
10885;DHT22;5495;53.252;10.390;2023-01-19T03:08:07;1.70;99.90
10885;DHT22;5495;53.252;10.390;2023-01-19T03:10:44;1.70;99.90
10885;DHT22;5495;53.252;10.390;2023-01-19T03:13:16;1.80;99.90
10885;DHT22;5495;53.252;10.390;2023-01-19T03:15:49;1.80;99.90
10885;DHT22;5495;53.252;10.390;2023-01-19T03:18:20;2.00;99.90
10885;DHT22;5495;53.252;10.390;2023-01-19T03:20:51;1.70;99.90
10885;DHT22;5495;53.252;10.390;2023-01-19T03:23:21;1.80;99.90
10885;DHT22;5495;53.252;10.390;2023-01-19T03:25:54;2.00;99.90
10885;DHT22;5495;53.252;10.390;2023-01-19T03:28:24;1.80;99.90
10885;DHT22;5495;53.252;10.390;2023-01-19T03:30:57;2.10;99.90
10885;DHT22;5495;53.252;10.390;2023-01-19T03:33:29;1.90;99.90
10885;DHT22;5495;53.252;10.390;2023-01-19T03:36:01;2.30;99.90
10885;DHT22;5495;53.252;10.390;2023-01-19T03:38:33;1.90;99.90
10885;DHT22;5495;53.252;10.390;2023-01-19T03:41:05;1.80;99.90
10885;DHT22;5495;53.252;10.390;2023-01-19T03:43:35;1.80;99.90
10885;DHT22;5495;53.252;10.390;2023-01-19T03:46:05;1.90;99.90
10885;DHT22;5495;53.252;10.390;2023-01-19T03:48:32;1.80;99.90
10885;DHT22;5495;53.252;10.390;2023-01-19T03:51:02;1.80;99.90
10885;DHT22;5495;53.252;10.390;2023-01-19T03:53:30;1.90;99.90
10885;DHT22;5495;53.252;10.390;2023-01-19T03:55:58;2.00;99.90
10885;DHT22;5495;53.252;10.390;2023-01-19T03:58:29;2.10;99.90
10885;DHT22;5495;53.252;10.390;2023-01-19T04:00:57;2.20;99.90
10885;DHT22;5495;53.252;10.390;2023-01-19T04:03:24;1.90;99.90
10885;DHT22;5495;53.252;10.390;2023-01-19T04:05:52;1.80;99.90
10885;DHT22;5495;53.252;10.390;2023-01-19T04:08:19;1.80;99.90
10885;DHT22;5495;53.252;10.390;2023-01-19T04:10:46;1.80;99.90
10885;DHT22;5495;53.252;10.390;2023-01-19T04:13:13;1.80;99.90
10885;DHT22;5495;53.252;10.390;2023-01-19T04:15:42;1.80;99.90
10885;DHT22;5495;53.252;10.390;2023-01-19T04:18:09;1.80;99.90
10885;DHT22;5495;53.252;10.390;2023-01-19T04:20:40;1.80;99.90
10885;DHT22;5495;53.252;10.390;2023-01-19T04:23:07;1.90;99.90
10885;DHT22;5495;53.252;10.390;2023-01-19T04:25:45;1.90;99.90
10885;DHT22;5495;53.252;10.390;2023-01-19T04:28:13;1.80;99.90
10885;DHT22;5495;53.252;10.390;2023-01-19T04:30:41;1.90;99.90
10885;DHT22;5495;53.252;10.390;2023-01-19T04:33:09;1.80;99.90
10885;DHT22;5495;53.252;10.390;2023-01-19T04:35:44;2.20;99.90
10885;DHT22;5495;53.252;10.390;2023-01-19T04:38:14;2.10;99.90
10885;DHT22;5495;53.252;10.390;2023-01-19T04:40:42;1.90;99.90
10885;DHT22;5495;53.252;10.390;2023-01-19T04:43:09;1.80;99.90
10885;DHT22;5495;53.252;10.390;2023-01-19T04:45:36;2.20;99.90
10885;DHT22;5495;53.252;10.390;2023-01-19T04:48:05;1.90;99.90
10885;DHT22;5495;53.252;10.390;2023-01-19T04:50:39;2.00;99.90
10885;DHT22;5495;53.252;10.390;2023-01-19T04:53:07;2.00;99.90
10885;DHT22;5495;53.252;10.390;2023-01-19T04:55:36;2.00;99.90
10885;DHT22;5495;53.252;10.390;2023-01-19T04:58:03;1.80;99.90
10885;DHT22;5495;53.252;10.390;2023-01-19T05:00:37;1.80;99.90
10885;DHT22;5495;53.252;10.390;2023-01-19T05:03:06;1.80;99.90
10885;DHT22;5495;53.252;10.390;2023-01-19T05:05:33;2.00;99.90
10885;DHT22;5495;53.252;10.390;2023-01-19T05:08:01;1.80;99.90
10885;DHT22;5495;53.252;10.390;2023-01-19T05:10:28;1.90;99.90
10885;DHT22;5495;53.252;10.390;2023-01-19T05:12:55;1.90;99.90
10885;DHT22;5495;53.252;10.390;2023-01-19T05:15:23;2.00;99.90
10885;DHT22;5495;53.252;10.390;2023-01-19T05:17:52;1.90;99.90
10885;DHT22;5495;53.252;10.390;2023-01-19T05:20:21;1.10;99.90
10885;DHT22;5495;53.252;10.390;2023-01-19T05:22:49;1.80;99.90
10885;DHT22;5495;53.252;10.390;2023-01-19T05:25:17;1.90;99.90
10885;DHT22;5495;53.252;10.390;2023-01-19T05:27:45;1.90;99.90
10885;DHT22;5495;53.252;10.390;2023-01-19T05:30:12;2.20;99.90
10885;DHT22;5495;53.252;10.390;2023-01-19T05:32:43;2.10;99.90
10885;DHT22;5495;53.252;10.390;2023-01-19T05:35:10;2.00;99.90
10885;DHT22;5495;53.252;10.390;2023-01-19T05:37:45;2.10;99.90
10885;DHT22;5495;53.252;10.390;2023-01-19T05:40:17;2.00;99.90
10885;DHT22;5495;53.252;10.390;2023-01-19T05:42:44;2.00;99.90
10885;DHT22;5495;53.252;10.390;2023-01-19T05:45:11;2.00;99.90
10885;DHT22;5495;53.252;10.390;2023-01-19T05:47:39;2.00;99.90
10885;DHT22;5495;53.252;10.390;2023-01-19T05:50:07;2.00;99.90
10885;DHT22;5495;53.252;10.390;2023-01-19T05:52:34;2.00;99.90
10885;DHT22;5495;53.252;10.390;2023-01-19T05:55:04;2.00;99.90
10885;DHT22;5495;53.252;10.390;2023-01-19T05:57:31;2.00;99.90
10885;DHT22;5495;53.252;10.390;2023-01-19T06:00:00;2.00;99.90
10885;DHT22;5495;53.252;10.390;2023-01-19T06:02:28;1.90;99.90
10885;DHT22;5495;53.252;10.390;2023-01-19T06:04:57;1.90;99.90
10885;DHT22;5495;53.252;10.390;2023-01-19T06:07:36;1.70;99.90
10885;DHT22;5495;53.252;10.390;2023-01-19T06:10:11;1.90;99.90
10885;DHT22;5495;53.252;10.390;2023-01-19T06:12:39;2.00;99.90
10885;DHT22;5495;53.252;10.390;2023-01-19T06:15:08;2.00;99.90
10885;DHT22;5495;53.252;10.390;2023-01-19T06:17:38;2.00;99.90
10885;DHT22;5495;53.252;10.390;2023-01-19T06:20:07;2.20;99.90
10885;DHT22;5495;53.252;10.390;2023-01-19T06:22:35;1.90;99.90
10885;DHT22;5495;53.252;10.390;2023-01-19T06:25:03;2.00;99.90
10885;DHT22;5495;53.252;10.390;2023-01-19T06:27:31;2.10;99.90
10885;DHT22;5495;53.252;10.390;2023-01-19T06:29:59;2.20;99.90
10885;DHT22;5495;53.252;10.390;2023-01-19T06:32:26;2.10;99.90
10885;DHT22;5495;53.252;10.390;2023-01-19T06:34:53;2.30;99.90
10885;DHT22;5495;53.252;10.390;2023-01-19T06:37:21;2.00;99.90
10885;DHT22;5495;53.252;10.390;2023-01-19T06:39:53;2.00;99.90
10885;DHT22;5495;53.252;10.390;2023-01-19T06:42:23;2.00;99.90
10885;DHT22;5495;53.252;10.390;2023-01-19T06:44:58;2.10;99.90
10885;DHT22;5495;53.252;10.390;2023-01-19T06:47:26;1.90;99.90
10885;DHT22;5495;53.252;10.390;2023-01-19T06:49:58;3.10;99.90
10885;DHT22;5495;53.252;10.390;2023-01-19T06:52:28;2.00;99.90
10885;DHT22;5495;53.252;10.390;2023-01-19T06:55:04;2.10;99.90
10885;DHT22;5495;53.252;10.390;2023-01-19T06:57:35;1.70;99.90
10885;DHT22;5495;53.252;10.390;2023-01-19T07:00:06;1.90;99.90
10885;DHT22;5495;53.252;10.390;2023-01-19T07:02:34;2.00;99.90
10885;DHT22;5495;53.252;10.390;2023-01-19T07:05:01;2.00;99.90
10885;DHT22;5495;53.252;10.390;2023-01-19T07:07:29;2.10;99.90
10885;DHT22;5495;53.252;10.390;2023-01-19T07:09:56;2.00;99.90
10885;DHT22;5495;53.252;10.390;2023-01-19T07:12:24;2.00;99.90
10885;DHT22;5495;53.252;10.390;2023-01-19T07:14:51;2.10;99.90
10885;DHT22;5495;53.252;10.390;2023-01-19T07:17:22;2.10;99.90
10885;DHT22;5495;53.252;10.390;2023-01-19T07:20:00;2.10;99.90
10885;DHT22;5495;53.252;10.390;2023-01-19T07:22:28;2.00;99.90
10885;DHT22;5495;53.252;10.390;2023-01-19T07:24:55;2.00;99.90
10885;DHT22;5495;53.252;10.390;2023-01-19T07:27:24;2.10;99.90
10885;DHT22;5495;53.252;10.390;2023-01-19T07:29:52;2.00;99.90
10885;DHT22;5495;53.252;10.390;2023-01-19T07:32:21;2.00;99.90
10885;DHT22;5495;53.252;10.390;2023-01-19T07:34:48;2.00;99.90
10885;DHT22;5495;53.252;10.390;2023-01-19T07:37:16;1.90;99.90
10885;DHT22;5495;53.252;10.390;2023-01-19T07:39:43;2.10;99.90
10885;DHT22;5495;53.252;10.390;2023-01-19T07:42:11;2.00;99.90
10885;DHT22;5495;53.252;10.390;2023-01-19T07:44:41;2.00;99.90
10885;DHT22;5495;53.252;10.390;2023-01-19T07:47:10;2.20;99.90
10885;DHT22;5495;53.252;10.390;2023-01-19T07:49:39;2.00;99.90
10885;DHT22;5495;53.252;10.390;2023-01-19T07:52:12;2.10;99.90
10885;DHT22;5495;53.252;10.390;2023-01-19T07:54:51;2.10;99.90
10885;DHT22;5495;53.252;10.390;2023-01-19T07:57:43;1.90;99.90
10885;DHT22;5495;53.252;10.390;2023-01-19T08:00:15;2.10;99.90
10885;DHT22;5495;53.252;10.390;2023-01-19T08:02:45;2.00;99.90
10885;DHT22;5495;53.252;10.390;2023-01-19T08:05:16;2.40;99.90
10885;DHT22;5495;53.252;10.390;2023-01-19T08:07:44;2.00;99.90
10885;DHT22;5495;53.252;10.390;2023-01-19T08:10:12;2.00;99.90
10885;DHT22;5495;53.252;10.390;2023-01-19T08:12:40;2.10;99.90
10885;DHT22;5495;53.252;10.390;2023-01-19T08:15:13;2.10;99.90
10885;DHT22;5495;53.252;10.390;2023-01-19T08:17:41;2.10;99.90
10885;DHT22;5495;53.252;10.390;2023-01-19T08:20:11;2.20;99.90
10885;DHT22;5495;53.252;10.390;2023-01-19T08:22:40;2.30;99.90
10885;DHT22;5495;53.252;10.390;2023-01-19T08:25:08;2.20;99.90
10885;DHT22;5495;53.252;10.390;2023-01-19T08:27:38;2.20;99.90
10885;DHT22;5495;53.252;10.390;2023-01-19T08:30:12;2.30;99.90
10885;DHT22;5495;53.252;10.390;2023-01-19T08:32:39;2.30;99.90
10885;DHT22;5495;53.252;10.390;2023-01-19T08:35:10;1.80;99.90
10885;DHT22;5495;53.252;10.390;2023-01-19T08:37:37;2.20;99.90
10885;DHT22;5495;53.252;10.390;2023-01-19T08:40:08;2.40;99.90
10885;DHT22;5495;53.252;10.390;2023-01-19T08:42:35;2.20;99.90
10885;DHT22;5495;53.252;10.390;2023-01-19T08:45:06;2.30;99.90
10885;DHT22;5495;53.252;10.390;2023-01-19T08:47:34;2.20;99.90
10885;DHT22;5495;53.252;10.390;2023-01-19T08:50:01;2.20;99.90
10885;DHT22;5495;53.252;10.390;2023-01-19T08:52:29;2.20;99.90
10885;DHT22;5495;53.252;10.390;2023-01-19T08:55:01;2.10;99.90
10885;DHT22;5495;53.252;10.390;2023-01-19T08:57:30;2.30;99.90
10885;DHT22;5495;53.252;10.390;2023-01-19T08:59:57;2.20;99.90
10885;DHT22;5495;53.252;10.390;2023-01-19T09:02:25;2.30;99.90
10885;DHT22;5495;53.252;10.390;2023-01-19T09:04:54;2.30;99.90
10885;DHT22;5495;53.252;10.390;2023-01-19T09:07:28;2.30;99.90
10885;DHT22;5495;53.252;10.390;2023-01-19T09:10:02;4.90;99.90
10885;DHT22;5495;53.252;10.390;2023-01-19T09:12:39;2.30;99.90
10885;DHT22;5495;53.252;10.390;2023-01-19T09:15:08;2.40;99.90
10885;DHT22;5495;53.252;10.390;2023-01-19T09:17:38;2.40;99.90
10885;DHT22;5495;53.252;10.390;2023-01-19T09:20:09;2.40;99.90
10885;DHT22;5495;53.252;10.390;2023-01-19T09:22:41;2.40;99.90
10885;DHT22;5495;53.252;10.390;2023-01-19T09:25:11;2.40;99.90
10885;DHT22;5495;53.252;10.390;2023-01-19T09:27:42;2.50;99.90
10885;DHT22;5495;53.252;10.390;2023-01-19T09:30:10;2.60;99.90
10885;DHT22;5495;53.252;10.390;2023-01-19T09:32:38;2.70;99.90
10885;DHT22;5495;53.252;10.390;2023-01-19T09:35:06;2.90;99.90
10885;DHT22;5495;53.252;10.390;2023-01-19T09:37:34;2.80;99.90
10885;DHT22;5495;53.252;10.390;2023-01-19T09:40:01;2.90;99.90
10885;DHT22;5495;53.252;10.390;2023-01-19T09:42:32;3.20;99.90
10885;DHT22;5495;53.252;10.390;2023-01-19T09:45:09;3.10;99.90
10885;DHT22;5495;53.252;10.390;2023-01-19T09:47:40;3.10;99.90
10885;DHT22;5495;53.252;10.390;2023-01-19T09:50:14;3.20;99.90
10885;DHT22;5495;53.252;10.390;2023-01-19T09:52:51;3.30;99.90
10885;DHT22;5495;53.252;10.390;2023-01-19T09:55:24;3.50;99.90
10885;DHT22;5495;53.252;10.390;2023-01-19T09:57:52;3.50;99.90
10885;DHT22;5495;53.252;10.390;2023-01-19T10:00:21;4.20;99.90
10885;DHT22;5495;53.252;10.390;2023-01-19T10:03:00;3.60;99.90
10885;DHT22;5495;53.252;10.390;2023-01-19T10:05:38;3.40;99.90
10885;DHT22;5495;53.252;10.390;2023-01-19T10:08:17;3.40;99.90
10885;DHT22;5495;53.252;10.390;2023-01-19T10:10:50;3.40;99.90
10885;DHT22;5495;53.252;10.390;2023-01-19T10:13:27;3.30;99.90
10885;DHT22;5495;53.252;10.390;2023-01-19T10:16:09;3.40;99.90
10885;DHT22;5495;53.252;10.390;2023-01-19T10:18:42;3.30;99.90
10885;DHT22;5495;53.252;10.390;2023-01-19T10:21:15;3.40;99.90
10885;DHT22;5495;53.252;10.390;2023-01-19T10:23:46;3.50;99.90
10885;DHT22;5495;53.252;10.390;2023-01-19T10:26:17;3.50;99.90
10885;DHT22;5495;53.252;10.390;2023-01-19T10:28:47;3.50;99.90
10885;DHT22;5495;53.252;10.390;2023-01-19T10:31:22;3.60;99.90
10885;DHT22;5495;53.252;10.390;2023-01-19T10:33:52;3.60;99.90
10885;DHT22;5495;53.252;10.390;2023-01-19T10:36:23;3.70;99.90
10885;DHT22;5495;53.252;10.390;2023-01-19T10:38:52;3.70;99.90
10885;DHT22;5495;53.252;10.390;2023-01-19T10:41:25;3.60;99.90
10885;DHT22;5495;53.252;10.390;2023-01-19T10:44:01;3.80;99.90
10885;DHT22;5495;53.252;10.390;2023-01-19T10:46:35;3.80;99.90
10885;DHT22;5495;53.252;10.390;2023-01-19T10:49:04;3.70;99.90
10885;DHT22;5495;53.252;10.390;2023-01-19T10:51:31;3.60;99.90
10885;DHT22;5495;53.252;10.390;2023-01-19T10:54:04;3.50;99.90
10885;DHT22;5495;53.252;10.390;2023-01-19T10:56:40;3.60;99.90
10885;DHT22;5495;53.252;10.390;2023-01-19T10:59:29;3.40;99.90
10885;DHT22;5495;53.252;10.390;2023-01-19T11:02:18;3.40;99.90
10885;DHT22;5495;53.252;10.390;2023-01-19T11:04:47;3.60;99.90
10885;DHT22;5495;53.252;10.390;2023-01-19T11:07:19;3.60;99.90
10885;DHT22;5495;53.252;10.390;2023-01-19T11:09:47;3.70;99.90
10885;DHT22;5495;53.252;10.390;2023-01-19T11:12:19;3.70;99.90
10885;DHT22;5495;53.252;10.390;2023-01-19T11:14:48;3.60;99.90
10885;DHT22;5495;53.252;10.390;2023-01-19T11:17:23;3.60;99.90
10885;DHT22;5495;53.252;10.390;2023-01-19T11:19:57;3.50;99.90
10885;DHT22;5495;53.252;10.390;2023-01-19T11:22:27;3.50;99.90
10885;DHT22;5495;53.252;10.390;2023-01-19T11:25:02;3.50;99.90
10885;DHT22;5495;53.252;10.390;2023-01-19T11:27:35;3.50;99.90
10885;DHT22;5495;53.252;10.390;2023-01-19T11:30:06;3.40;99.90
10885;DHT22;5495;53.252;10.390;2023-01-19T11:32:45;3.40;99.90
10885;DHT22;5495;53.252;10.390;2023-01-19T11:35:34;3.40;99.90
10885;DHT22;5495;53.252;10.390;2023-01-19T11:38:12;3.40;99.90
10885;DHT22;5495;53.252;10.390;2023-01-19T11:40:49;3.40;99.90
10885;DHT22;5495;53.252;10.390;2023-01-19T11:43:18;3.30;99.90
10885;DHT22;5495;53.252;10.390;2023-01-19T11:45:46;3.30;99.90
10885;DHT22;5495;53.252;10.390;2023-01-19T11:48:27;2.80;99.90
10885;DHT22;5495;53.252;10.390;2023-01-19T11:51:00;3.20;99.90
10885;DHT22;5495;53.252;10.390;2023-01-19T11:53:34;3.20;99.90
10885;DHT22;5495;53.252;10.390;2023-01-19T11:56:05;3.30;99.90
10885;DHT22;5495;53.252;10.390;2023-01-19T11:58:37;3.30;99.90
10885;DHT22;5495;53.252;10.390;2023-01-19T12:01:08;3.50;99.90
10885;DHT22;5495;53.252;10.390;2023-01-19T12:03:46;3.30;99.90
10885;DHT22;5495;53.252;10.390;2023-01-19T12:06:20;3.40;99.90
10885;DHT22;5495;53.252;10.390;2023-01-19T12:08:52;3.50;99.90
10885;DHT22;5495;53.252;10.390;2023-01-19T12:11:26;3.50;99.90
10885;DHT22;5495;53.252;10.390;2023-01-19T12:13:54;3.50;99.90
10885;DHT22;5495;53.252;10.390;2023-01-19T12:16:23;3.50;99.90
10885;DHT22;5495;53.252;10.390;2023-01-19T12:18:58;3.50;99.90
10885;DHT22;5495;53.252;10.390;2023-01-19T12:21:26;3.50;99.90
10885;DHT22;5495;53.252;10.390;2023-01-19T12:24:01;3.60;99.90
10885;DHT22;5495;53.252;10.390;2023-01-19T12:26:36;3.50;99.90
10885;DHT22;5495;53.252;10.390;2023-01-19T12:29:10;3.50;99.90
10885;DHT22;5495;53.252;10.390;2023-01-19T12:31:38;3.40;99.90
10885;DHT22;5495;53.252;10.390;2023-01-19T12:34:39;3.40;99.90
10885;DHT22;5495;53.252;10.390;2023-01-19T12:37:27;3.50;99.90
10885;DHT22;5495;53.252;10.390;2023-01-19T12:40:03;3.50;99.90
10885;DHT22;5495;53.252;10.390;2023-01-19T12:42:32;3.40;99.90
10885;DHT22;5495;53.252;10.390;2023-01-19T12:45:05;3.30;99.90
10885;DHT22;5495;53.252;10.390;2023-01-19T12:47:35;3.40;99.90
10885;DHT22;5495;53.252;10.390;2023-01-19T12:50:06;3.30;99.90
10885;DHT22;5495;53.252;10.390;2023-01-19T12:52:40;3.30;99.90
10885;DHT22;5495;53.252;10.390;2023-01-19T12:55:20;3.40;99.90
10885;DHT22;5495;53.252;10.390;2023-01-19T12:57:54;3.30;99.90
10885;DHT22;5495;53.252;10.390;2023-01-19T13:00:31;3.30;99.90
10885;DHT22;5495;53.252;10.390;2023-01-19T13:03:00;3.40;99.90
10885;DHT22;5495;53.252;10.390;2023-01-19T13:05:59;3.30;99.90
10885;DHT22;5495;53.252;10.390;2023-01-19T13:11:21;3.40;99.90
10885;DHT22;5495;53.252;10.390;2023-01-19T13:20:23;3.50;99.90
10885;DHT22;5495;53.252;10.390;2023-01-19T13:23:17;3.50;99.90
10885;DHT22;5495;53.252;10.390;2023-01-19T13:25:51;1.50;99.90
10885;DHT22;5495;53.252;10.390;2023-01-19T13:28:25;3.70;99.90
10885;DHT22;5495;53.252;10.390;2023-01-19T13:30:57;3.50;99.90
10885;DHT22;5495;53.252;10.390;2023-01-19T13:33:31;3.40;99.90
10885;DHT22;5495;53.252;10.390;2023-01-19T13:36:00;3.50;99.90
10885;DHT22;5495;53.252;10.390;2023-01-19T13:38:32;3.50;99.90
10885;DHT22;5495;53.252;10.390;2023-01-19T13:41:01;3.50;99.90
10885;DHT22;5495;53.252;10.390;2023-01-19T13:43:33;3.50;99.90
10885;DHT22;5495;53.252;10.390;2023-01-19T13:46:03;3.50;99.90
10885;DHT22;5495;53.252;10.390;2023-01-19T13:48:32;3.50;99.90
10885;DHT22;5495;53.252;10.390;2023-01-19T13:51:01;3.50;99.90
10885;DHT22;5495;53.252;10.390;2023-01-19T13:53:32;3.40;99.90
10885;DHT22;5495;53.252;10.390;2023-01-19T13:56:17;3.50;99.90
10885;DHT22;5495;53.252;10.390;2023-01-19T13:59:00;3.60;99.90
10885;DHT22;5495;53.252;10.390;2023-01-19T14:01:29;3.60;99.90
10885;DHT22;5495;53.252;10.390;2023-01-19T14:03:59;3.60;99.90
10885;DHT22;5495;53.252;10.390;2023-01-19T14:06:37;3.50;99.90
10885;DHT22;5495;53.252;10.390;2023-01-19T14:09:18;3.60;99.90
10885;DHT22;5495;53.252;10.390;2023-01-19T14:11:46;3.60;99.90
10885;DHT22;5495;53.252;10.390;2023-01-19T14:14:27;3.60;99.90
10885;DHT22;5495;53.252;10.390;2023-01-19T14:16:57;3.60;99.90
10885;DHT22;5495;53.252;10.390;2023-01-19T14:19:24;3.60;99.90
10885;DHT22;5495;53.252;10.390;2023-01-19T14:22:00;3.60;99.90
10885;DHT22;5495;53.252;10.390;2023-01-19T14:24:29;3.70;99.90
10885;DHT22;5495;53.252;10.390;2023-01-19T14:27:20;3.50;99.90
10885;DHT22;5495;53.252;10.390;2023-01-19T14:29:50;3.50;99.90
10885;DHT22;5495;53.252;10.390;2023-01-19T14:32:20;3.50;99.90
10885;DHT22;5495;53.252;10.390;2023-01-19T14:34:49;3.40;99.90
10885;DHT22;5495;53.252;10.390;2023-01-19T14:37:21;3.40;99.90
10885;DHT22;5495;53.252;10.390;2023-01-19T14:39:54;3.40;99.90
10885;DHT22;5495;53.252;10.390;2023-01-19T14:42:25;3.40;99.90
10885;DHT22;5495;53.252;10.390;2023-01-19T14:44:56;3.40;99.90
10885;DHT22;5495;53.252;10.390;2023-01-19T14:47:28;3.40;99.90
10885;DHT22;5495;53.252;10.390;2023-01-19T14:49:59;3.40;99.90
10885;DHT22;5495;53.252;10.390;2023-01-19T14:52:35;3.40;99.90
10885;DHT22;5495;53.252;10.390;2023-01-19T14:55:06;3.70;99.90
10885;DHT22;5495;53.252;10.390;2023-01-19T14:57:42;3.40;99.90
10885;DHT22;5495;53.252;10.390;2023-01-19T15:00:15;3.50;99.90
10885;DHT22;5495;53.252;10.390;2023-01-19T15:02:43;3.40;99.90
10885;DHT22;5495;53.252;10.390;2023-01-19T15:05:11;3.40;99.90
10885;DHT22;5495;53.252;10.390;2023-01-19T15:07:40;3.30;99.90
10885;DHT22;5495;53.252;10.390;2023-01-19T15:10:16;3.40;99.90
10885;DHT22;5495;53.252;10.390;2023-01-19T15:12:44;3.40;99.90
10885;DHT22;5495;53.252;10.390;2023-01-19T15:15:25;3.40;99.90
10885;DHT22;5495;53.252;10.390;2023-01-19T15:17:53;3.40;99.90
10885;DHT22;5495;53.252;10.390;2023-01-19T15:20:24;3.50;99.90
10885;DHT22;5495;53.252;10.390;2023-01-19T15:22:52;3.40;99.90
10885;DHT22;5495;53.252;10.390;2023-01-19T15:25:37;3.40;99.90
10885;DHT22;5495;53.252;10.390;2023-01-19T15:28:09;3.30;99.90
10885;DHT22;5495;53.252;10.390;2023-01-19T15:30:37;3.20;99.90
10885;DHT22;5495;53.252;10.390;2023-01-19T15:33:05;3.20;99.90
10885;DHT22;5495;53.252;10.390;2023-01-19T15:35:32;3.20;99.90
10885;DHT22;5495;53.252;10.390;2023-01-19T15:37:59;3.10;99.90
10885;DHT22;5495;53.252;10.390;2023-01-19T15:40:28;3.00;99.90
10885;DHT22;5495;53.252;10.390;2023-01-19T15:42:58;3.00;99.90
10885;DHT22;5495;53.252;10.390;2023-01-19T15:45:36;3.00;99.90
10885;DHT22;5495;53.252;10.390;2023-01-19T15:48:06;3.00;99.90
10885;DHT22;5495;53.252;10.390;2023-01-19T15:50:41;2.90;99.90
10885;DHT22;5495;53.252;10.390;2023-01-19T15:53:14;2.90;99.90
10885;DHT22;5495;53.252;10.390;2023-01-19T15:55:48;0.40;99.90
10885;DHT22;5495;53.252;10.390;2023-01-19T15:58:21;2.70;99.90
10885;DHT22;5495;53.252;10.390;2023-01-19T16:00:52;2.60;99.90
10885;DHT22;5495;53.252;10.390;2023-01-19T16:03:20;2.60;99.90
10885;DHT22;5495;53.252;10.390;2023-01-19T16:05:48;2.60;99.90
10885;DHT22;5495;53.252;10.390;2023-01-19T16:08:16;2.50;99.90
10885;DHT22;5495;53.252;10.390;2023-01-19T16:10:46;2.50;99.90
10885;DHT22;5495;53.252;10.390;2023-01-19T16:13:14;2.40;99.90
10885;DHT22;5495;53.252;10.390;2023-01-19T16:15:43;2.30;99.90
10885;DHT22;5495;53.252;10.390;2023-01-19T16:18:10;2.30;99.90
10885;DHT22;5495;53.252;10.390;2023-01-19T16:20:38;5.80;99.90
10885;DHT22;5495;53.252;10.390;2023-01-19T16:23:09;2.20;99.90